RNP weather

Owosso Community Airport
Owosso, Michigan, United States

Public forecast

Using degrees Fahrenheit for public forecast. Weather courtesy of forecast.io.

Current aviation weather report (METAR) for Owosso Community Airport

Retrieved 2020/06/01 03:15 UTC (7 minutes ago):

KRNP 010315Z AUTO 22003KT 10SM CLR 12/04 A3028 RMK AO2 T01150043

Closest aviation forecast (TAF) to Owosso Community Airport

Closest forecast is Bishop International Airport, 17.4 nm (32.3 km) E. Retrieved 2020-06-01 00:24 UTC (3 hours ago):

TAF KFNT 312322Z 0100/0124 25005KT P6SM SKC FM011500 23008KT P6SM SCT050 BKN200 FM011900 22010KT P6SM OVC100